createdAt,value
2023-01-19T00:02:28.795Z,98102.41
2023-01-19T00:04:58.878Z,98102.41
2023-01-19T00:07:27.620Z,98094.00
2023-01-19T00:09:56.453Z,98077.19
2023-01-19T00:12:25.266Z,98088.13
2023-01-19T00:14:54.058Z,98090.66
2023-01-19T00:17:22.725Z,98087.28
2023-01-19T00:19:53.058Z,98085.59
2023-01-19T00:22:21.938Z,98089.81
2023-01-19T00:24:50.683Z,98089.78
2023-01-19T00:27:19.476Z,98090.63
2023-01-19T00:29:48.662Z,98099.06
2023-01-19T00:32:20.476Z,98087.28
2023-01-19T00:34:52.578Z,98085.59
2023-01-19T00:37:22.848Z,98073.81
2023-01-19T00:39:51.589Z,98071.28
2023-01-19T00:42:30.219Z,98073.00
2023-01-19T00:44:59.005Z,98073.81
2023-01-19T00:47:27.696Z,98084.75
2023-01-19T00:49:56.438Z,98090.66
2023-01-19T00:52:26.729Z,98088.13
2023-01-19T00:54:55.456Z,98082.22
2023-01-19T00:57:24.288Z,98089.78
2023-01-19T00:59:53.191Z,98092.31
2023-01-19T01:02:22.135Z,98095.69
2023-01-19T01:04:55.011Z,98099.03
2023-01-19T01:07:24.246Z,98101.56
2023-01-19T01:09:54.423Z,98109.16
2023-01-19T01:12:23.629Z,98107.44
2023-01-19T01:14:52.351Z,98115.88
2023-01-19T01:17:25.448Z,98110.00
2023-01-19T01:19:54.328Z,98113.34
2023-01-19T01:22:23.083Z,98102.41
2023-01-19T01:24:53.516Z,98104.94
2023-01-19T01:27:22.487Z,98112.50
2023-01-19T01:29:51.169Z,98108.31
2023-01-19T01:32:19.926Z,98110.81
2023-01-19T01:34:48.630Z,98109.97
2023-01-19T01:37:20.558Z,98115.03
2023-01-19T01:39:49.779Z,98106.59
2023-01-19T01:42:21.689Z,98105.78
2023-01-19T01:44:53.563Z,98108.31
2023-01-19T01:47:30.044Z,98110.81
2023-01-19T01:50:06.665Z,98108.31
2023-01-19T01:52:39.624Z,98110.81
2023-01-19T01:55:11.478Z,98112.50
2023-01-19T01:57:51.570Z,98110.81
2023-01-19T02:00:20.872Z,98109.16
2023-01-19T02:02:51.884Z,98114.19
2023-01-19T02:05:24.673Z,98106.59
2023-01-19T02:08:07.684Z,98115.03
2023-01-19T02:10:45.623Z,98119.22
2023-01-19T02:13:21.286Z,98124.28
2023-01-19T02:15:51.919Z,98111.69
2023-01-19T02:18:21.689Z,98125.97
2023-01-19T02:21:00.772Z,98124.28
2023-01-19T02:23:40.788Z,98131.00
2023-01-19T02:26:11.787Z,98133.53
2023-01-19T02:28:44.860Z,98131.84
2023-01-19T02:31:15.593Z,98135.22
2023-01-19T02:33:45.583Z,98136.03
2023-01-19T02:36:17.018Z,98133.53
2023-01-19T02:38:49.631Z,98138.56
2023-01-19T02:41:24.052Z,98151.19
2023-01-19T02:43:54.904Z,98153.72
2023-01-19T02:46:23.933Z,98152.88
2023-01-19T02:48:52.686Z,98159.59
2023-01-19T02:51:25.442Z,98162.13
2023-01-19T02:54:18.976Z,98155.38
2023-01-19T02:57:01.476Z,98147.00
2023-01-19T02:59:42.161Z,98159.63
2023-01-19T03:02:25.535Z,98163.78
2023-01-19T03:05:10.069Z,98164.66
2023-01-19T03:07:52.522Z,98157.91
2023-01-19T03:10:31.371Z,98154.53
2023-01-19T03:13:06.015Z,98143.63
2023-01-19T03:15:42.407Z,98127.66
2023-01-19T03:18:15.761Z,98130.19
2023-01-19T03:20:46.800Z,98139.41
2023-01-19T03:23:17.702Z,98146.13
2023-01-19T03:25:50.888Z,98157.94
2023-01-19T03:28:23.520Z,98178.09
2023-01-19T03:30:59.344Z,98181.47
2023-01-19T03:33:31.922Z,98171.38
2023-01-19T03:36:06.482Z,98176.44
2023-01-19T03:38:38.633Z,98173.91
2023-01-19T03:41:15.695Z,98181.47
2023-01-19T03:43:46.270Z,98178.13
2023-01-19T03:46:17.543Z,98196.63
2023-01-19T03:48:47.213Z,98191.56
2023-01-19T03:51:17.676Z,98186.53
2023-01-19T03:53:46.503Z,98186.50
2023-01-19T03:56:24.143Z,98185.66
2023-01-19T03:58:54.541Z,98179.78
2023-01-19T04:01:25.339Z,98179.78
2023-01-19T04:03:54.881Z,98174.72
2023-01-19T04:06:23.790Z,98168.03
2023-01-19T04:08:53.300Z,98174.75
2023-01-19T04:11:23.561Z,98163.81
2023-01-19T04:13:52.371Z,98164.66
2023-01-19T04:16:21.787Z,98152.06
2023-01-19T04:18:53.031Z,98153.72
2023-01-19T04:21:21.974Z,98152.88
2023-01-19T04:23:51.042Z,98150.34
2023-01-19T04:26:20.011Z,98144.47
2023-01-19T04:28:50.177Z,98143.63
2023-01-19T04:31:19.604Z,98129.31
2023-01-19T04:33:48.363Z,98118.41
2023-01-19T04:36:17.109Z,98115.88
2023-01-19T04:38:46.821Z,98125.97
2023-01-19T04:41:15.222Z,98127.63
2023-01-19T04:43:44.113Z,98117.53
2023-01-19T04:46:14.274Z,98120.94
2023-01-19T04:48:43.259Z,98120.06
2023-01-19T04:51:12.245Z,98127.66
2023-01-19T04:53:41.086Z,98124.28
2023-01-19T04:56:09.800Z,98126.81
2023-01-19T04:58:38.651Z,98127.66
2023-01-19T05:01:09.940Z,98131.00
2023-01-19T05:03:40.387Z,98136.88
2023-01-19T05:06:09.358Z,98125.13
2023-01-19T05:08:38.020Z,98116.72
2023-01-19T05:11:07.526Z,98102.44
2023-01-19T05:13:36.201Z,98095.69
2023-01-19T05:16:06.414Z,98097.38
2023-01-19T05:18:37.422Z,98102.41
2023-01-19T05:21:09.055Z,98090.63
2023-01-19T05:23:38.226Z,98094.00
2023-01-19T05:26:09.445Z,98096.53
2023-01-19T05:28:38.503Z,98087.25
2023-01-19T05:31:07.453Z,98075.47
2023-01-19T05:33:36.360Z,98066.25
2023-01-19T05:36:05.771Z,98081.38
2023-01-19T05:38:36.261Z,98090.63
2023-01-19T05:41:05.238Z,98096.53
2023-01-19T05:43:34.072Z,98104.09
2023-01-19T05:46:05.050Z,98094.00
2023-01-19T05:48:33.956Z,98099.06
2023-01-19T05:51:03.230Z,98090.63
2023-01-19T05:53:32.242Z,98105.75
2023-01-19T05:56:03.615Z,98095.66
2023-01-19T05:58:32.421Z,98109.16
2023-01-19T06:01:05.800Z,98130.19
2023-01-19T06:03:34.946Z,98127.63
2023-01-19T06:06:04.263Z,98131.84
2023-01-19T06:08:33.091Z,98128.47
2023-01-19T06:11:03.242Z,98130.19
2023-01-19T06:13:31.971Z,98124.28
2023-01-19T06:16:01.244Z,98121.75
2023-01-19T06:18:30.791Z,98133.53
2023-01-19T06:20:59.923Z,98143.63
2023-01-19T06:23:31.069Z,98150.38
2023-01-19T06:25:59.990Z,98147.84
2023-01-19T06:28:30.202Z,98147.00
2023-01-19T06:30:59.589Z,98142.81
2023-01-19T06:33:28.976Z,98128.50
2023-01-19T06:35:58.105Z,98113.34
2023-01-19T06:38:27.027Z,98107.44
2023-01-19T06:40:58.806Z,98094.84
2023-01-19T06:43:29.357Z,98088.97
2023-01-19T06:45:58.496Z,98073.81
2023-01-19T06:48:27.284Z,98090.63
2023-01-19T06:50:58.553Z,98095.66
2023-01-19T06:53:30.440Z,98102.41
2023-01-19T06:56:02.894Z,98102.41
2023-01-19T06:58:35.380Z,98105.78
2023-01-19T07:01:05.245Z,98109.97
2023-01-19T07:03:35.455Z,98126.81
2023-01-19T07:06:06.885Z,98134.38
2023-01-19T07:08:36.082Z,98144.47
2023-01-19T07:11:25.246Z,98147.84
2023-01-19T07:13:58.147Z,98144.47
2023-01-19T07:16:27.104Z,98141.94
2023-01-19T07:18:55.981Z,98151.22
2023-01-19T07:21:25.106Z,98154.56
2023-01-19T07:23:54.450Z,98156.25
2023-01-19T07:26:25.292Z,98159.63
2023-01-19T07:28:54.010Z,98163.00
2023-01-19T07:31:24.582Z,98149.53
2023-01-19T07:33:53.385Z,98159.63
2023-01-19T07:36:22.323Z,98166.34
2023-01-19T07:38:51.146Z,98173.09
2023-01-19T07:41:19.844Z,98178.97
2023-01-19T07:43:52.534Z,98182.31
2023-01-19T07:46:21.329Z,98189.09
2023-01-19T07:48:51.345Z,98179.81
2023-01-19T07:51:20.272Z,98169.72
2023-01-19T07:53:51.875Z,98174.78
2023-01-19T07:56:20.802Z,98176.44
2023-01-19T07:58:50.554Z,98185.69
2023-01-19T08:01:19.801Z,98181.50
2023-01-19T08:03:51.051Z,98190.75
2023-01-19T08:06:23.685Z,98189.91
2023-01-19T08:08:53.053Z,98188.25
2023-01-19T08:11:21.793Z,98186.56
2023-01-19T08:13:50.551Z,98194.94
2023-01-19T08:16:19.536Z,98196.66
2023-01-19T08:18:48.427Z,98203.38
2023-01-19T08:21:18.579Z,98213.47
2023-01-19T08:23:53.757Z,98228.63
2023-01-19T08:26:27.630Z,98223.59
2023-01-19T08:28:57.812Z,98216.84
2023-01-19T08:31:27.365Z,98209.28
2023-01-19T08:33:55.839Z,98203.38
2023-01-19T08:36:26.320Z,98200.84
2023-01-19T08:38:55.127Z,98200.84
2023-01-19T08:41:23.917Z,98196.66
2023-01-19T08:43:52.661Z,98191.59
2023-01-19T08:46:22.084Z,98192.44
2023-01-19T08:48:50.663Z,98187.41
2023-01-19T08:51:19.927Z,98183.16
2023-01-19T08:53:50.396Z,98184.88
2023-01-19T08:56:20.695Z,98168.06
2023-01-19T08:59:03.456Z,98173.09
2023-01-19T09:01:38.088Z,98174.78
2023-01-19T09:04:07.377Z,98173.91
2023-01-19T09:06:36.220Z,98174.75
2023-01-19T09:09:06.459Z,98182.34
2023-01-19T09:11:36.765Z,98169.72
2023-01-19T09:14:05.771Z,98163.00
2023-01-19T09:16:34.591Z,98168.03
2023-01-19T09:19:03.464Z,98168.00
2023-01-19T09:21:32.151Z,98173.91
2023-01-19T09:24:01.044Z,98171.38
2023-01-19T09:26:33.157Z,98174.78
2023-01-19T09:29:02.385Z,98184.84
2023-01-19T09:31:31.043Z,98194.97
2023-01-19T09:33:59.968Z,98194.94
2023-01-19T09:36:28.783Z,98190.72
2023-01-19T09:38:57.457Z,98194.13
2023-01-19T09:41:26.530Z,98200.00
2023-01-19T09:44:01.159Z,98190.72
2023-01-19T09:46:36.603Z,98192.41
2023-01-19T09:49:14.925Z,98186.53
2023-01-19T09:51:46.829Z,98183.16
2023-01-19T09:54:17.902Z,98179.78
2023-01-19T09:56:50.691Z,98193.28
2023-01-19T09:59:25.368Z,98184.84
2023-01-19T10:02:09.125Z,98178.94
2023-01-19T10:04:42.583Z,98183.16
2023-01-19T10:07:17.716Z,98178.09
2023-01-19T10:09:58.432Z,98183.16
2023-01-19T10:12:40.582Z,98184.84
2023-01-19T10:15:19.819Z,98194.09
2023-01-19T10:18:00.311Z,98205.06
2023-01-19T10:20:37.030Z,98199.97
2023-01-19T10:23:18.998Z,98202.50
2023-01-19T10:25:48.970Z,98188.19
2023-01-19T10:28:21.223Z,98186.53
2023-01-19T10:30:53.078Z,98187.38
2023-01-19T10:33:21.951Z,98185.66
2023-01-19T10:35:50.860Z,98177.25
2023-01-19T10:38:22.488Z,98172.19
2023-01-19T10:40:58.170Z,98172.19
2023-01-19T10:43:43.432Z,98166.31
2023-01-19T10:46:27.383Z,98176.41
2023-01-19T10:48:57.368Z,98169.66
2023-01-19T10:51:26.238Z,98157.88
2023-01-19T10:53:58.477Z,98164.59
2023-01-19T10:56:32.374Z,98167.13
2023-01-19T10:59:03.345Z,98172.19
2023-01-19T11:01:37.433Z,98172.19
2023-01-19T11:04:23.295Z,98179.75
2023-01-19T11:06:52.097Z,98172.19
2023-01-19T11:09:24.071Z,98138.50
2023-01-19T11:11:56.160Z,98167.94
2023-01-19T11:14:27.963Z,98154.44
2023-01-19T11:17:00.437Z,98162.03
2023-01-19T11:19:32.355Z,98162.03
2023-01-19T11:22:22.002Z,98167.09
2023-01-19T11:24:51.222Z,98168.78
2023-01-19T11:27:21.739Z,98170.47
2023-01-19T11:29:55.523Z,98158.72
2023-01-19T11:32:30.018Z,98167.97
2023-01-19T11:34:59.304Z,98166.28
2023-01-19T11:37:31.696Z,98168.81
2023-01-19T11:40:03.088Z,98162.91
2023-01-19T11:42:36.993Z,98167.97
2023-01-19T11:45:14.190Z,98174.69
2023-01-19T11:47:46.057Z,98185.63
2023-01-19T11:50:31.407Z,98183.09
2023-01-19T11:53:06.245Z,98172.13
2023-01-19T11:55:41.325Z,98175.50
2023-01-19T11:58:17.117Z,98185.63
2023-01-19T12:00:51.719Z,98162.91
2023-01-19T12:03:26.741Z,98184.75
2023-01-19T12:06:02.444Z,98184.75
2023-01-19T12:08:37.200Z,98177.19
2023-01-19T12:11:08.267Z,98177.22
2023-01-19T12:13:37.733Z,98183.13
2023-01-19T12:16:10.512Z,98188.97
2023-01-19T12:18:45.472Z,98189.00
2023-01-19T12:21:14.225Z,98191.50
2023-01-19T12:23:52.043Z,98196.56
2023-01-19T12:26:29.886Z,98198.25
2023-01-19T12:29:02.075Z,98207.50
2023-01-19T12:31:30.995Z,98183.94
2023-01-19T12:34:26.196Z,98204.13
2023-01-19T12:37:01.042Z,98212.56
2023-01-19T12:39:30.017Z,98222.66
2023-01-19T12:42:12.293Z,98218.47
2023-01-19T12:44:42.915Z,98222.66
2023-01-19T12:47:24.558Z,98219.28
2023-01-19T12:49:56.768Z,98216.75
2023-01-19T12:52:34.309Z,98214.22
2023-01-19T12:55:09.469Z,98230.28
2023-01-19T12:57:41.438Z,98230.25
2023-01-19T13:00:30.735Z,98237.00
2023-01-19T13:03:01.469Z,98230.25
2023-01-19T13:05:58.789Z,98237.00
2023-01-19T13:08:31.366Z,98239.53
2023-01-19T13:11:23.789Z,98242.06
2023-01-19T13:14:25.871Z,98243.75
2023-01-19T13:17:04.508Z,98249.66
2023-01-19T13:19:53.783Z,98262.31
2023-01-19T13:22:44.243Z,98270.72
2023-01-19T13:25:23.477Z,98279.16
2023-01-19T13:27:52.362Z,98274.97
2023-01-19T13:30:27.375Z,98280.00
2023-01-19T13:32:58.839Z,98285.88
2023-01-19T13:35:28.972Z,98270.72
2023-01-19T13:38:00.085Z,98271.56
2023-01-19T13:40:38.400Z,98267.34
2023-01-19T13:43:16.121Z,98278.31
2023-01-19T13:45:51.113Z,98288.44
2023-01-19T13:48:23.851Z,98294.31
2023-01-19T13:51:05.407Z,98296.00
2023-01-19T13:53:35.648Z,98302.75
2023-01-19T13:56:18.342Z,98304.44
2023-01-19T13:59:01.104Z,98306.09
2023-01-19T14:01:30.358Z,98309.47
2023-01-19T14:03:59.709Z,98306.09
2023-01-19T14:06:37.666Z,98318.75
2023-01-19T14:09:16.940Z,98322.94
2023-01-19T14:11:49.608Z,98319.56
2023-01-19T14:14:30.180Z,98336.41
2023-01-19T14:16:59.956Z,98333.88
2023-01-19T14:19:29.220Z,98338.09
2023-01-19T14:22:03.308Z,98342.28
2023-01-19T14:24:33.430Z,98336.41
2023-01-19T14:27:22.878Z,98338.91
2023-01-19T14:29:54.937Z,98333.84
2023-01-19T14:32:28.176Z,98343.13
2023-01-19T14:35:15.611Z,98349.00
2023-01-19T14:37:49.158Z,98361.63
2023-01-19T14:40:20.507Z,98358.22
2023-01-19T14:42:54.333Z,98370.00
2023-01-19T14:45:26.491Z,98379.25
2023-01-19T14:47:58.585Z,98380.91
2023-01-19T14:50:31.668Z,98382.59
2023-01-19T14:53:04.689Z,98388.47
2023-01-19T14:55:38.014Z,98391.00
2023-01-19T14:58:13.274Z,98397.72
2023-01-19T15:00:42.226Z,98400.25
2023-01-19T15:03:11.359Z,98403.59
2023-01-19T15:05:41.368Z,98411.13
2023-01-19T15:08:13.949Z,98417.00
2023-01-19T15:10:43.117Z,98418.69
2023-01-19T15:13:20.352Z,98416.19
2023-01-19T15:15:49.970Z,98411.97
2023-01-19T15:18:20.983Z,98421.22
2023-01-19T15:20:49.779Z,98417.00
2023-01-19T15:23:18.551Z,98416.97
2023-01-19T15:25:47.349Z,98424.53
2023-01-19T15:28:20.539Z,98435.50
2023-01-19T15:30:49.446Z,98434.66
2023-01-19T15:33:21.772Z,98433.78
2023-01-19T15:35:51.294Z,98437.16
2023-01-19T15:38:19.997Z,98451.44
2023-01-19T15:40:51.403Z,98441.34
2023-01-19T15:43:22.364Z,98452.28
2023-01-19T15:45:54.997Z,98446.38
2023-01-19T15:48:23.812Z,98452.25
2023-01-19T15:50:52.596Z,98457.34
2023-01-19T15:53:24.710Z,98454.78
2023-01-19T15:55:57.046Z,98458.13
2023-01-19T15:58:27.349Z,98457.28
2023-01-19T16:00:57.439Z,98460.63
2023-01-19T16:03:27.629Z,98458.09
2023-01-19T16:05:56.457Z,98469.03
2023-01-19T16:08:25.130Z,98470.72
2023-01-19T16:10:54.361Z,98479.09
2023-01-19T16:13:23.078Z,98474.06
2023-01-19T16:15:53.323Z,98474.06
2023-01-19T16:18:22.049Z,98474.91
2023-01-19T16:20:50.721Z,98475.69
2023-01-19T16:23:19.486Z,98466.44
2023-01-19T16:25:57.692Z,98475.69
2023-01-19T16:28:27.248Z,98470.63
2023-01-19T16:30:57.408Z,98490.00
2023-01-19T16:33:26.660Z,98487.47
2023-01-19T16:35:55.428Z,98486.63
2023-01-19T16:38:25.028Z,98479.00
2023-01-19T16:40:53.719Z,98480.72
2023-01-19T16:43:22.457Z,98486.59
2023-01-19T16:46:00.730Z,98478.13
2023-01-19T16:48:30.247Z,98484.06
2023-01-19T16:51:04.842Z,98494.97
2023-01-19T16:53:35.852Z,98483.19
2023-01-19T16:56:07.910Z,98502.53
2023-01-19T16:58:38.536Z,98499.16
2023-01-19T17:01:14.905Z,98507.59
2023-01-19T17:03:44.408Z,98514.31
2023-01-19T17:06:15.879Z,98527.75
2023-01-19T17:08:44.491Z,98539.56
2023-01-19T17:11:19.894Z,98545.41
2023-01-19T17:13:48.924Z,98553.84
2023-01-19T17:16:19.216Z,98558.06
2023-01-19T17:18:48.262Z,98568.97
2023-01-19T17:21:18.214Z,98565.59
2023-01-19T17:23:49.181Z,98581.56
2023-01-19T17:26:18.657Z,98592.47
2023-01-19T17:28:48.111Z,98611.81
2023-01-19T17:31:20.984Z,98613.47
2023-01-19T17:33:51.802Z,98614.28
2023-01-19T17:36:22.910Z,98603.25
2023-01-19T17:38:52.402Z,98609.16
2023-01-19T17:41:23.728Z,98609.13
2023-01-19T17:43:53.778Z,98617.44
2023-01-19T17:46:26.407Z,98645.19
2023-01-19T17:48:56.439Z,98645.94
2023-01-19T17:51:26.382Z,98660.22
2023-01-19T17:53:55.734Z,98668.53
2023-01-19T17:56:28.547Z,98673.47
2023-01-19T17:58:57.791Z,98678.47
2023-01-19T18:01:30.145Z,98686.75
2023-01-19T18:04:00.117Z,98693.41
2023-01-19T18:06:29.786Z,98698.34
2023-01-19T18:08:59.783Z,98693.25
2023-01-19T18:11:29.464Z,98704.91
2023-01-19T18:13:58.661Z,98705.72
2023-01-19T18:16:31.020Z,98705.63
2023-01-19T18:19:03.214Z,98704.75
2023-01-19T18:21:32.296Z,98708.03
2023-01-19T18:24:03.481Z,98711.44
2023-01-19T18:26:33.599Z,98713.09
2023-01-19T18:29:02.854Z,98682.53
2023-01-19T18:31:33.127Z,98706.25
2023-01-19T18:34:02.518Z,98709.53
2023-01-19T18:36:32.330Z,98710.31
2023-01-19T18:39:02.440Z,98709.41
2023-01-19T18:41:31.241Z,98705.97
2023-01-19T18:44:00.168Z,98711.00
2023-01-19T18:46:29.129Z,98709.31
2023-01-19T18:48:59.369Z,98695.03
2023-01-19T18:51:28.194Z,98692.50
2023-01-19T18:53:58.211Z,98688.31
2023-01-19T18:56:27.530Z,98690.84
2023-01-19T18:58:56.727Z,98690.00
2023-01-19T19:01:28.772Z,98679.00
2023-01-19T19:04:00.104Z,98684.09
2023-01-19T19:06:28.947Z,98690.00
2023-01-19T19:08:59.347Z,98692.50
2023-01-19T19:11:29.429Z,98692.50
2023-01-19T19:13:58.855Z,98687.47
2023-01-19T19:16:28.688Z,98679.88
2023-01-19T19:18:58.222Z,98671.50
2023-01-19T19:21:28.611Z,98675.75
2023-01-19T19:23:59.300Z,98689.19
2023-01-19T19:26:29.363Z,98690.78
2023-01-19T19:28:58.080Z,98697.47
2023-01-19T19:31:28.380Z,98701.63
2023-01-19T19:33:58.446Z,98713.44
2023-01-19T19:36:29.895Z,98731.03
2023-01-19T19:39:01.652Z,98741.13
2023-01-19T19:41:32.894Z,98746.16
2023-01-19T19:44:01.865Z,98752.84
2023-01-19T19:46:30.573Z,98769.59
2023-01-19T19:48:59.817Z,98783.06
2023-01-19T19:51:30.144Z,98789.69
2023-01-19T19:54:00.537Z,98787.22
2023-01-19T19:56:32.456Z,98782.97
2023-01-19T19:59:01.366Z,98765.28
2023-01-19T20:01:33.757Z,98773.56
2023-01-19T20:04:10.889Z,98761.84
2023-01-19T20:06:45.045Z,98771.97
2023-01-19T20:09:14.348Z,98778.66
2023-01-19T20:11:44.332Z,98786.28
2023-01-19T20:14:16.317Z,98779.59
2023-01-19T20:16:45.181Z,98777.88
2023-01-19T20:19:13.908Z,98780.53
2023-01-19T20:21:44.191Z,98788.03
2023-01-19T20:24:15.714Z,98788.00
2023-01-19T20:26:47.349Z,98796.34
2023-01-19T20:29:16.755Z,98789.53
2023-01-19T20:31:49.154Z,98787.03
2023-01-19T20:34:20.877Z,98781.19
2023-01-19T20:36:53.453Z,98781.19
2023-01-19T20:39:24.033Z,98786.19
2023-01-19T20:41:53.107Z,98793.69
2023-01-19T20:44:23.849Z,98799.66
2023-01-19T20:46:54.013Z,98803.03
2023-01-19T20:49:24.318Z,98807.28
2023-01-19T20:51:54.427Z,98803.09
2023-01-19T20:54:26.544Z,98804.78
2023-01-19T20:56:55.719Z,98803.03
2023-01-19T20:59:25.052Z,98793.75
2023-01-19T21:01:54.308Z,98795.41
2023-01-19T21:04:22.980Z,98799.59
2023-01-19T21:06:51.696Z,98805.47
2023-01-19T21:09:23.146Z,98811.28
2023-01-19T21:11:52.256Z,98808.78
2023-01-19T21:14:20.976Z,98812.94
2023-01-19T21:16:51.347Z,98817.97
2023-01-19T21:19:20.125Z,98819.63
2023-01-19T21:21:49.288Z,98812.81
2023-01-19T21:24:17.909Z,98817.03
2023-01-19T21:26:50.865Z,98814.44
2023-01-19T21:29:19.579Z,98822.84
2023-01-19T21:31:48.196Z,98822.84
2023-01-19T21:34:17.051Z,98821.06
2023-01-19T21:36:45.975Z,98818.50
2023-01-19T21:39:17.194Z,98824.34
2023-01-19T21:41:47.600Z,98831.03
2023-01-19T21:44:16.396Z,98824.22
2023-01-19T21:46:45.394Z,98826.69
2023-01-19T21:49:18.897Z,98820.78
2023-01-19T21:51:50.681Z,98824.97
2023-01-19T21:54:20.621Z,98818.22
2023-01-19T21:56:50.720Z,98829.06
2023-01-19T21:59:20.466Z,98827.31
2023-01-19T22:01:49.633Z,98829.75
2023-01-19T22:04:18.468Z,98824.66
2023-01-19T22:06:47.369Z,98828.78
2023-01-19T22:09:15.964Z,98840.44
2023-01-19T22:11:44.655Z,98841.97
2023-01-19T22:14:15.159Z,98845.28
2023-01-19T22:16:44.067Z,98846.03
2023-01-19T22:19:14.578Z,98829.94
2023-01-19T22:21:43.253Z,98841.78
2023-01-19T22:24:13.006Z,98841.78
2023-01-19T22:26:41.891Z,98830.81
2023-01-19T22:29:11.476Z,98837.47
2023-01-19T22:31:41.447Z,98841.69
2023-01-19T22:34:11.195Z,98842.47
2023-01-19T22:36:40.113Z,98837.34
2023-01-19T22:39:10.889Z,98850.03
2023-01-19T22:41:42.115Z,98844.94
2023-01-19T22:44:13.925Z,98843.25
2023-01-19T22:46:44.723Z,98841.56
2023-01-19T22:49:16.416Z,98840.66
2023-01-19T22:51:45.645Z,98830.50
2023-01-19T22:54:14.336Z,98837.28
2023-01-19T22:56:43.762Z,98833.00
2023-01-19T22:59:12.566Z,98840.47
2023-01-19T23:01:45.102Z,98848.69
2023-01-19T23:04:16.477Z,98849.50
2023-01-19T23:06:49.408Z,98848.63
2023-01-19T23:09:18.761Z,98851.03
2023-01-19T23:11:53.252Z,98848.50
2023-01-19T23:14:23.353Z,98844.28
2023-01-19T23:16:53.578Z,98845.97
2023-01-19T23:19:22.917Z,98835.94
2023-01-19T23:21:52.699Z,98840.09
2023-01-19T23:24:21.670Z,98848.38
2023-01-19T23:26:50.821Z,98852.50
2023-01-19T23:29:19.992Z,98842.44
2023-01-19T23:31:50.879Z,98840.00
2023-01-19T23:34:21.230Z,98840.78
2023-01-19T23:36:50.045Z,98839.13
2023-01-19T23:39:21.173Z,98844.13
2023-01-19T23:41:50.956Z,98844.09
2023-01-19T23:44:19.570Z,98840.66
2023-01-19T23:46:48.500Z,98851.59
2023-01-19T23:49:17.197Z,98864.09
2023-01-19T23:51:47.449Z,98889.19
2023-01-19T23:54:16.142Z,98902.53
2023-01-19T23:56:44.838Z,98899.22
2023-01-19T23:59:16.578Z,98877.41
